sensor_id;sensor_type;location;lat;lon;timestamp;P1;durP1;ratioP1;P2;durP2;ratioP2
44384;SDS011;30101;32.778;34.994;2023-02-01T00:03:23;13.50;;;2.78;;
44384;SDS011;30101;32.778;34.994;2023-02-01T00:08:26;9.18;;;1.73;;
44384;SDS011;30101;32.778;34.994;2023-02-01T00:13:31;33.08;;;3.22;;
44384;SDS011;30101;32.778;34.994;2023-02-01T00:18:35;22.52;;;2.70;;
44384;SDS011;30101;32.778;34.994;2023-02-01T00:23:39;10.43;;;2.38;;
44384;SDS011;30101;32.778;34.994;2023-02-01T00:28:43;15.35;;;2.22;;
44384;SDS011;30101;32.778;34.994;2023-02-01T00:33:47;9.00;;;1.65;;
44384;SDS011;30101;32.778;34.994;2023-02-01T00:38:51;11.85;;;1.70;;
44384;SDS011;30101;32.778;34.994;2023-02-01T00:43:54;10.15;;;1.33;;
44384;SDS011;30101;32.778;34.994;2023-02-01T00:54:00;8.45;;;1.45;;
44384;SDS011;30101;32.778;34.994;2023-02-01T00:59:04;17.67;;;2.88;;
44384;SDS011;30101;32.778;34.994;2023-02-01T01:04:07;12.18;;;1.30;;
44384;SDS011;30101;32.778;34.994;2023-02-01T01:09:11;9.70;;;1.40;;
44384;SDS011;30101;32.778;34.994;2023-02-01T01:14:14;6.63;;;1.30;;
44384;SDS011;30101;32.778;34.994;2023-02-01T01:19:18;16.23;;;1.90;;
44384;SDS011;30101;32.778;34.994;2023-02-01T01:24:21;9.43;;;1.20;;
44384;SDS011;30101;32.778;34.994;2023-02-01T01:29:24;11.13;;;1.60;;
44384;SDS011;30101;32.778;34.994;2023-02-01T01:39:30;11.60;;;1.70;;
44384;SDS011;30101;32.778;34.994;2023-02-01T01:50:09;16.02;;;2.17;;
44384;SDS011;30101;32.778;34.994;2023-02-01T01:55:19;18.23;;;2.50;;
44384;SDS011;30101;32.778;34.994;2023-02-01T02:00:25;15.32;;;1.70;;
44384;SDS011;30101;32.778;34.994;2023-02-01T02:05:31;13.73;;;1.70;;
44384;SDS011;30101;32.778;34.994;2023-02-01T02:15:41;8.52;;;1.73;;
44384;SDS011;30101;32.778;34.994;2023-02-01T02:48:06;13.75;;;1.60;;
44384;SDS011;30101;32.778;34.994;2023-02-01T02:59:08;8.15;;;1.95;;
44384;SDS011;30101;32.778;34.994;2023-02-01T03:04:13;7.28;;;1.42;;
44384;SDS011;30101;32.778;34.994;2023-02-01T03:09:31;8.52;;;1.50;;
44384;SDS011;30101;32.778;34.994;2023-02-01T03:14:40;23.63;;;2.33;;
44384;SDS011;30101;32.778;34.994;2023-02-01T03:19:47;10.50;;;1.85;;
44384;SDS011;30101;32.778;34.994;2023-02-01T03:24:54;11.88;;;2.00;;
44384;SDS011;30101;32.778;34.994;2023-02-01T03:35:20;12.77;;;2.05;;
44384;SDS011;30101;32.778;34.994;2023-02-01T03:40:30;11.63;;;1.75;;
44384;SDS011;30101;32.778;34.994;2023-02-01T03:45:38;18.10;;;2.20;;
44384;SDS011;30101;32.778;34.994;2023-02-01T03:50:49;17.27;;;2.58;;
44384;SDS011;30101;32.778;34.994;2023-02-01T03:55:57;12.43;;;1.20;;
44384;SDS011;30101;32.778;34.994;2023-02-01T04:01:01;16.83;;;1.42;;
44384;SDS011;30101;32.778;34.994;2023-02-01T04:06:08;12.73;;;1.63;;
44384;SDS011;30101;32.778;34.994;2023-02-01T04:16:16;10.63;;;1.40;;
44384;SDS011;30101;32.778;34.994;2023-02-01T04:21:19;5.32;;;1.15;;
44384;SDS011;30101;32.778;34.994;2023-02-01T04:26:22;10.70;;;1.10;;
44384;SDS011;30101;32.778;34.994;2023-02-01T04:31:26;6.38;;;1.20;;
44384;SDS011;30101;32.778;34.994;2023-02-01T04:36:29;9.25;;;1.33;;
44384;SDS011;30101;32.778;34.994;2023-02-01T04:46:35;12.10;;;1.50;;
44384;SDS011;30101;32.778;34.994;2023-02-01T04:56:42;11.27;;;2.00;;
44384;SDS011;30101;32.778;34.994;2023-02-01T05:01:46;11.88;;;2.40;;
44384;SDS011;30101;32.778;34.994;2023-02-01T05:06:50;12.98;;;3.05;;
44384;SDS011;30101;32.778;34.994;2023-02-01T05:11:54;17.17;;;2.72;;
44384;SDS011;30101;32.778;34.994;2023-02-01T05:22:00;15.98;;;2.55;;
44384;SDS011;30101;32.778;34.994;2023-02-01T05:27:03;15.02;;;2.92;;
44384;SDS011;30101;32.778;34.994;2023-02-01T05:37:24;11.85;;;1.58;;
44384;SDS011;30101;32.778;34.994;2023-02-01T05:47:31;10.85;;;1.75;;
44384;SDS011;30101;32.778;34.994;2023-02-01T05:52:34;7.32;;;1.52;;
44384;SDS011;30101;32.778;34.994;2023-02-01T05:57:37;6.55;;;1.70;;
44384;SDS011;30101;32.778;34.994;2023-02-01T06:02:40;8.73;;;1.77;;
44384;SDS011;30101;32.778;34.994;2023-02-01T06:07:44;4.60;;;1.75;;
44384;SDS011;30101;32.778;34.994;2023-02-01T06:12:47;9.20;;;1.65;;
44384;SDS011;30101;32.778;34.994;2023-02-01T06:17:51;15.25;;;1.90;;
44384;SDS011;30101;32.778;34.994;2023-02-01T06:22:55;11.80;;;1.80;;
44384;SDS011;30101;32.778;34.994;2023-02-01T06:28:00;14.63;;;2.13;;
44384;SDS011;30101;32.778;34.994;2023-02-01T06:33:04;20.27;;;2.67;;
44384;SDS011;30101;32.778;34.994;2023-02-01T06:43:10;14.43;;;1.90;;
44384;SDS011;30101;32.778;34.994;2023-02-01T06:48:14;17.60;;;2.20;;
44384;SDS011;30101;32.778;34.994;2023-02-01T06:53:17;11.38;;;2.05;;
44384;SDS011;30101;32.778;34.994;2023-02-01T07:03:24;17.40;;;1.95;;
44384;SDS011;30101;32.778;34.994;2023-02-01T07:08:28;20.60;;;1.98;;
44384;SDS011;30101;32.778;34.994;2023-02-01T07:13:31;22.02;;;2.50;;
44384;SDS011;30101;32.778;34.994;2023-02-01T07:18:35;19.80;;;2.55;;
44384;SDS011;30101;32.778;34.994;2023-02-01T07:23:38;25.02;;;2.65;;
44384;SDS011;30101;32.778;34.994;2023-02-01T07:33:44;21.95;;;2.72;;
44384;SDS011;30101;32.778;34.994;2023-02-01T07:38:48;10.40;;;2.05;;
44384;SDS011;30101;32.778;34.994;2023-02-01T07:48:55;13.57;;;2.50;;
44384;SDS011;30101;32.778;34.994;2023-02-01T07:53:58;18.50;;;2.38;;
44384;SDS011;30101;32.778;34.994;2023-02-01T07:59:02;13.00;;;2.47;;
44384;SDS011;30101;32.778;34.994;2023-02-01T08:04:05;21.33;;;3.58;;
44384;SDS011;30101;32.778;34.994;2023-02-01T08:09:09;19.55;;;2.47;;
44384;SDS011;30101;32.778;34.994;2023-02-01T08:14:13;18.88;;;2.35;;
44384;SDS011;30101;32.778;34.994;2023-02-01T08:24:21;15.40;;;2.40;;
44384;SDS011;30101;32.778;34.994;2023-02-01T08:29:25;27.83;;;4.40;;
44384;SDS011;30101;32.778;34.994;2023-02-01T08:39:32;44.00;;;8.52;;
44384;SDS011;30101;32.778;34.994;2023-02-01T08:44:35;69.32;;;12.55;;
44384;SDS011;30101;32.778;34.994;2023-02-01T08:49:39;74.32;;;11.35;;
44384;SDS011;30101;32.778;34.994;2023-02-01T08:54:42;44.30;;;9.57;;
44384;SDS011;30101;32.778;34.994;2023-02-01T09:04:48;119.40;;;11.73;;
44384;SDS011;30101;32.778;34.994;2023-02-01T09:09:52;20.30;;;3.83;;
44384;SDS011;30101;32.778;34.994;2023-02-01T09:19:58;12.30;;;2.13;;
44384;SDS011;30101;32.778;34.994;2023-02-01T09:25:01;15.50;;;2.35;;
44384;SDS011;30101;32.778;34.994;2023-02-01T09:30:06;13.80;;;1.95;;
44384;SDS011;30101;32.778;34.994;2023-02-01T09:35:10;10.25;;;1.83;;
44384;SDS011;30101;32.778;34.994;2023-02-01T09:40:15;12.55;;;1.73;;
44384;SDS011;30101;32.778;34.994;2023-02-01T09:45:32;16.02;;;1.67;;
44384;SDS011;30101;32.778;34.994;2023-02-01T09:50:56;3.70;;;0.75;;
44384;SDS011;30101;32.778;34.994;2023-02-01T09:56:05;8.32;;;1.25;;
44384;SDS011;30101;32.778;34.994;2023-02-01T10:01:20;16.70;;;1.40;;
44384;SDS011;30101;32.778;34.994;2023-02-01T10:28:31;24.95;;;2.97;;
44384;SDS011;30101;32.778;34.994;2023-02-01T10:33:41;25.38;;;3.33;;
44384;SDS011;30101;32.778;34.994;2023-02-01T10:38:47;31.48;;;4.05;;
44384;SDS011;30101;32.778;34.994;2023-02-01T10:43:54;32.25;;;3.80;;
44384;SDS011;30101;32.778;34.994;2023-02-01T10:49:00;17.92;;;2.67;;
44384;SDS011;30101;32.778;34.994;2023-02-01T10:54:22;26.20;;;2.63;;
44384;SDS011;30101;32.778;34.994;2023-02-01T10:59:36;22.88;;;3.30;;
44384;SDS011;30101;32.778;34.994;2023-02-01T11:04:39;21.92;;;3.00;;
44384;SDS011;30101;32.778;34.994;2023-02-01T11:09:42;19.65;;;2.38;;
44384;SDS011;30101;32.778;34.994;2023-02-01T11:15:28;27.23;;;2.90;;
44384;SDS011;30101;32.778;34.994;2023-02-01T11:25:34;19.40;;;3.20;;
44384;SDS011;30101;32.778;34.994;2023-02-01T11:30:40;8.80;;;1.42;;
44384;SDS011;30101;32.778;34.994;2023-02-01T11:35:47;5.13;;;1.25;;
44384;SDS011;30101;32.778;34.994;2023-02-01T11:40:50;12.98;;;1.85;;
44384;SDS011;30101;32.778;34.994;2023-02-01T12:02:54;33.20;;;3.40;;
44384;SDS011;30101;32.778;34.994;2023-02-01T12:18:18;19.63;;;2.40;;
44384;SDS011;30101;32.778;34.994;2023-02-01T12:23:50;18.40;;;2.00;;
44384;SDS011;30101;32.778;34.994;2023-02-01T12:51:09;14.05;;;2.63;;
44384;SDS011;30101;32.778;34.994;2023-02-01T12:56:19;15.43;;;1.60;;
44384;SDS011;30101;32.778;34.994;2023-02-01T13:01:49;13.15;;;2.10;;
44384;SDS011;30101;32.778;34.994;2023-02-01T13:12:38;9.25;;;1.65;;
44384;SDS011;30101;32.778;34.994;2023-02-01T13:17:48;12.93;;;1.23;;
44384;SDS011;30101;32.778;34.994;2023-02-01T13:22:57;19.50;;;2.88;;
44384;SDS011;30101;32.778;34.994;2023-02-01T13:28:09;16.75;;;2.40;;
44384;SDS011;30101;32.778;34.994;2023-02-01T13:44:44;12.48;;;2.63;;
44384;SDS011;30101;32.778;34.994;2023-02-01T13:49:52;8.80;;;1.92;;
44384;SDS011;30101;32.778;34.994;2023-02-01T13:55:03;9.57;;;1.95;;
44384;SDS011;30101;32.778;34.994;2023-02-01T14:00:24;9.52;;;2.25;;
44384;SDS011;30101;32.778;34.994;2023-02-01T14:37:05;22.52;;;3.17;;
44384;SDS011;30101;32.778;34.994;2023-02-01T14:42:17;16.83;;;4.25;;
44384;SDS011;30101;32.778;34.994;2023-02-01T14:57:37;18.42;;;3.40;;
44384;SDS011;30101;32.778;34.994;2023-02-01T15:02:44;13.32;;;3.05;;
44384;SDS011;30101;32.778;34.994;2023-02-01T15:07:50;19.98;;;3.60;;
44384;SDS011;30101;32.778;34.994;2023-02-01T15:12:54;26.25;;;3.90;;
44384;SDS011;30101;32.778;34.994;2023-02-01T15:17:58;22.10;;;3.22;;
44384;SDS011;30101;32.778;34.994;2023-02-01T15:23:03;22.63;;;3.90;;
44384;SDS011;30101;32.778;34.994;2023-02-01T15:28:14;19.67;;;3.05;;
44384;SDS011;30101;32.778;34.994;2023-02-01T15:33:19;13.38;;;3.92;;
44384;SDS011;30101;32.778;34.994;2023-02-01T15:48:33;14.75;;;2.75;;
44384;SDS011;30101;32.778;34.994;2023-02-01T15:53:43;18.15;;;4.43;;
44384;SDS011;30101;32.778;34.994;2023-02-01T15:59:02;11.75;;;3.47;;
44384;SDS011;30101;32.778;34.994;2023-02-01T16:09:20;14.63;;;3.05;;
44384;SDS011;30101;32.778;34.994;2023-02-01T16:14:25;13.70;;;3.75;;
44384;SDS011;30101;32.778;34.994;2023-02-01T16:19:29;9.68;;;4.30;;
44384;SDS011;30101;32.778;34.994;2023-02-01T16:24:32;13.43;;;3.40;;
44384;SDS011;30101;32.778;34.994;2023-02-01T16:29:35;25.35;;;3.55;;
44384;SDS011;30101;32.778;34.994;2023-02-01T16:34:38;25.83;;;3.78;;
44384;SDS011;30101;32.778;34.994;2023-02-01T16:39:42;12.43;;;2.72;;
44384;SDS011;30101;32.778;34.994;2023-02-01T16:44:45;22.10;;;3.63;;
44384;SDS011;30101;32.778;34.994;2023-02-01T16:49:48;12.07;;;2.55;;
44384;SDS011;30101;32.778;34.994;2023-02-01T16:54:53;14.88;;;2.60;;
44384;SDS011;30101;32.778;34.994;2023-02-01T17:00:03;13.60;;;3.42;;
44384;SDS011;30101;32.778;34.994;2023-02-01T17:05:33;13.43;;;2.60;;
44384;SDS011;30101;32.778;34.994;2023-02-01T17:10:37;14.27;;;2.67;;
44384;SDS011;30101;32.778;34.994;2023-02-01T17:16:00;16.95;;;2.90;;
44384;SDS011;30101;32.778;34.994;2023-02-01T17:21:06;13.80;;;2.35;;
44384;SDS011;30101;32.778;34.994;2023-02-01T17:26:12;9.38;;;1.83;;
44384;SDS011;30101;32.778;34.994;2023-02-01T17:31:16;23.00;;;2.80;;
44384;SDS011;30101;32.778;34.994;2023-02-01T17:36:20;19.27;;;3.35;;
44384;SDS011;30101;32.778;34.994;2023-02-01T17:46:31;13.18;;;2.65;;
44384;SDS011;30101;32.778;34.994;2023-02-01T17:51:35;18.15;;;2.72;;
44384;SDS011;30101;32.778;34.994;2023-02-01T17:56:40;24.05;;;3.03;;
44384;SDS011;30101;32.778;34.994;2023-02-01T18:01:49;14.70;;;1.80;;
44384;SDS011;30101;32.778;34.994;2023-02-01T18:11:55;8.30;;;1.80;;
44384;SDS011;30101;32.778;34.994;2023-02-01T18:16:58;9.57;;;1.30;;
44384;SDS011;30101;32.778;34.994;2023-02-01T18:22:01;18.00;;;2.60;;
44384;SDS011;30101;32.778;34.994;2023-02-01T18:32:08;11.38;;;2.45;;
44384;SDS011;30101;32.778;34.994;2023-02-01T18:37:13;11.70;;;3.08;;
44384;SDS011;30101;32.778;34.994;2023-02-01T18:42:23;14.25;;;2.40;;
44384;SDS011;30101;32.778;34.994;2023-02-01T18:52:29;11.13;;;2.92;;
44384;SDS011;30101;32.778;34.994;2023-02-01T18:57:32;8.68;;;1.52;;
44384;SDS011;30101;32.778;34.994;2023-02-01T19:02:35;10.63;;;1.75;;
44384;SDS011;30101;32.778;34.994;2023-02-01T19:07:40;10.07;;;1.98;;
44384;SDS011;30101;32.778;34.994;2023-02-01T19:12:44;9.15;;;2.17;;
44384;SDS011;30101;32.778;34.994;2023-02-01T19:17:49;10.40;;;2.63;;
44384;SDS011;30101;32.778;34.994;2023-02-01T19:22:54;8.07;;;1.88;;
44384;SDS011;30101;32.778;34.994;2023-02-01T19:27:57;10.90;;;2.45;;
44384;SDS011;30101;32.778;34.994;2023-02-01T19:33:01;17.60;;;2.83;;
44384;SDS011;30101;32.778;34.994;2023-02-01T19:38:04;15.90;;;2.80;;
44384;SDS011;30101;32.778;34.994;2023-02-01T19:48:11;8.00;;;2.08;;
44384;SDS011;30101;32.778;34.994;2023-02-01T19:53:14;16.20;;;2.88;;
44384;SDS011;30101;32.778;34.994;2023-02-01T19:58:17;12.05;;;1.98;;
44384;SDS011;30101;32.778;34.994;2023-02-01T20:03:22;19.27;;;3.70;;
44384;SDS011;30101;32.778;34.994;2023-02-01T20:08:26;18.08;;;2.72;;
44384;SDS011;30101;32.778;34.994;2023-02-01T20:13:30;8.57;;;2.80;;
44384;SDS011;30101;32.778;34.994;2023-02-01T20:18:33;14.60;;;2.30;;
44384;SDS011;30101;32.778;34.994;2023-02-01T20:23:36;18.58;;;3.17;;
44384;SDS011;30101;32.778;34.994;2023-02-01T20:28:39;14.07;;;2.67;;
44384;SDS011;30101;32.778;34.994;2023-02-01T20:33:43;14.35;;;2.83;;
44384;SDS011;30101;32.778;34.994;2023-02-01T20:38:46;16.40;;;3.30;;
44384;SDS011;30101;32.778;34.994;2023-02-01T20:43:49;16.45;;;3.33;;
44384;SDS011;30101;32.778;34.994;2023-02-01T20:48:53;10.32;;;2.20;;
44384;SDS011;30101;32.778;34.994;2023-02-01T20:53:56;8.02;;;2.63;;
44384;SDS011;30101;32.778;34.994;2023-02-01T20:58:59;15.07;;;2.92;;
44384;SDS011;30101;32.778;34.994;2023-02-01T21:04:03;14.00;;;2.97;;
44384;SDS011;30101;32.778;34.994;2023-02-01T21:14:09;10.27;;;2.55;;
44384;SDS011;30101;32.778;34.994;2023-02-01T21:19:13;7.60;;;2.55;;
44384;SDS011;30101;32.778;34.994;2023-02-01T21:24:16;16.75;;;4.18;;
44384;SDS011;30101;32.778;34.994;2023-02-01T21:29:20;6.32;;;1.88;;
44384;SDS011;30101;32.778;34.994;2023-02-01T21:34:25;22.33;;;4.07;;
44384;SDS011;30101;32.778;34.994;2023-02-01T21:39:28;10.15;;;3.20;;
44384;SDS011;30101;32.778;34.994;2023-02-01T21:44:31;14.55;;;2.92;;
44384;SDS011;30101;32.778;34.994;2023-02-01T21:49:34;19.17;;;3.30;;
44384;SDS011;30101;32.778;34.994;2023-02-01T21:54:41;10.68;;;2.20;;
44384;SDS011;30101;32.778;34.994;2023-02-01T21:59:44;14.10;;;2.67;;
44384;SDS011;30101;32.778;34.994;2023-02-01T22:04:47;14.52;;;2.45;;
44384;SDS011;30101;32.778;34.994;2023-02-01T22:09:50;15.23;;;3.03;;
44384;SDS011;30101;32.778;34.994;2023-02-01T22:14:54;13.13;;;2.80;;
44384;SDS011;30101;32.778;34.994;2023-02-01T22:25:00;4.07;;;1.75;;
44384;SDS011;30101;32.778;34.994;2023-02-01T22:30:04;14.85;;;3.90;;
44384;SDS011;30101;32.778;34.994;2023-02-01T22:35:07;10.05;;;2.88;;
44384;SDS011;30101;32.778;34.994;2023-02-01T22:40:13;9.23;;;2.08;;
44384;SDS011;30101;32.778;34.994;2023-02-01T22:45:16;10.23;;;2.33;;
44384;SDS011;30101;32.778;34.994;2023-02-01T22:50:19;10.85;;;2.10;;
44384;SDS011;30101;32.778;34.994;2023-02-01T22:55:22;8.70;;;2.28;;
44384;SDS011;30101;32.778;34.994;2023-02-01T23:00:26;12.27;;;2.83;;
44384;SDS011;30101;32.778;34.994;2023-02-01T23:05:30;8.88;;;2.40;;
44384;SDS011;30101;32.778;34.994;2023-02-01T23:10:33;10.57;;;3.17;;
44384;SDS011;30101;32.778;34.994;2023-02-01T23:20:43;7.82;;;2.42;;
44384;SDS011;30101;32.778;34.994;2023-02-01T23:25:50;11.52;;;2.10;;
44384;SDS011;30101;32.778;34.994;2023-02-01T23:30:53;12.38;;;2.70;;
44384;SDS011;30101;32.778;34.994;2023-02-01T23:41:03;17.42;;;3.47;;
44384;SDS011;30101;32.778;34.994;2023-02-01T23:46:09;10.55;;;2.78;;
44384;SDS011;30101;32.778;34.994;2023-02-01T23:51:13;11.80;;;2.15;;
44384;SDS011;30101;32.778;34.994;2023-02-01T23:56:21;7.15;;;1.40;;
